sensor_id;sensor_type;location;lat;lon;timestamp;P1;durP1;ratioP1;P2;durP2;ratioP2
29574;SDS011;16507;51.046;6.406;2023-06-10T00:02:04;17.75;;;7.10;;
29574;SDS011;16507;51.046;6.406;2023-06-10T00:04:30;14.48;;;7.28;;
29574;SDS011;16507;51.046;6.406;2023-06-10T00:06:56;22.70;;;7.72;;
29574;SDS011;16507;51.046;6.406;2023-06-10T00:09:22;13.00;;;8.20;;
29574;SDS011;16507;51.046;6.406;2023-06-10T00:11:48;15.25;;;8.35;;
29574;SDS011;16507;51.046;6.406;2023-06-10T00:14:13;16.23;;;9.07;;
29574;SDS011;16507;51.046;6.406;2023-06-10T00:16:42;18.55;;;9.43;;
29574;SDS011;16507;51.046;6.406;2023-06-10T00:19:10;16.83;;;9.13;;
29574;SDS011;16507;51.046;6.406;2023-06-10T00:21:38;13.88;;;8.60;;
29574;SDS011;16507;51.046;6.406;2023-06-10T00:24:09;19.77;;;9.10;;
29574;SDS011;16507;51.046;6.406;2023-06-10T00:26:37;13.70;;;8.60;;
29574;SDS011;16507;51.046;6.406;2023-06-10T00:29:03;23.75;;;9.80;;
29574;SDS011;16507;51.046;6.406;2023-06-10T00:31:28;19.88;;;9.52;;
29574;SDS011;16507;51.046;6.406;2023-06-10T00:33:55;17.70;;;9.45;;
29574;SDS011;16507;51.046;6.406;2023-06-10T00:36:21;26.92;;;8.85;;
29574;SDS011;16507;51.046;6.406;2023-06-10T00:38:46;11.93;;;9.07;;
29574;SDS011;16507;51.046;6.406;2023-06-10T00:41:12;19.83;;;8.93;;
29574;SDS011;16507;51.046;6.406;2023-06-10T00:43:38;22.30;;;9.30;;
29574;SDS011;16507;51.046;6.406;2023-06-10T00:46:03;18.60;;;9.68;;
29574;SDS011;16507;51.046;6.406;2023-06-10T00:48:29;14.60;;;8.82;;
29574;SDS011;16507;51.046;6.406;2023-06-10T00:50:55;31.27;;;9.23;;
29574;SDS011;16507;51.046;6.406;2023-06-10T00:53:21;22.00;;;9.07;;
29574;SDS011;16507;51.046;6.406;2023-06-10T00:55:47;26.77;;;8.63;;
29574;SDS011;16507;51.046;6.406;2023-06-10T00:58:13;24.33;;;9.60;;
29574;SDS011;16507;51.046;6.406;2023-06-10T01:00:40;27.40;;;9.48;;
29574;SDS011;16507;51.046;6.406;2023-06-10T01:03:06;28.23;;;9.13;;
29574;SDS011;16507;51.046;6.406;2023-06-10T01:05:33;21.83;;;8.85;;
29574;SDS011;16507;51.046;6.406;2023-06-10T01:11:03;22.67;;;9.63;;
29574;SDS011;16507;51.046;6.406;2023-06-10T01:13:33;26.13;;;9.75;;
29574;SDS011;16507;51.046;6.406;2023-06-10T01:16:03;16.38;;;9.68;;
29574;SDS011;16507;51.046;6.406;2023-06-10T01:18:32;20.13;;;9.57;;
29574;SDS011;16507;51.046;6.406;2023-06-10T01:20:57;17.90;;;9.18;;
29574;SDS011;16507;51.046;6.406;2023-06-10T01:23:26;31.73;;;9.27;;
29574;SDS011;16507;51.046;6.406;2023-06-10T01:25:53;23.60;;;9.90;;
29574;SDS011;16507;51.046;6.406;2023-06-10T01:28:31;16.38;;;9.68;;
29574;SDS011;16507;51.046;6.406;2023-06-10T01:31:13;15.00;;;9.52;;
29574;SDS011;16507;51.046;6.406;2023-06-10T01:33:49;15.75;;;9.20;;
29574;SDS011;16507;51.046;6.406;2023-06-10T01:36:18;20.63;;;9.48;;
29574;SDS011;16507;51.046;6.406;2023-06-10T01:38:47;22.33;;;9.70;;
29574;SDS011;16507;51.046;6.406;2023-06-10T01:41:15;23.35;;;8.90;;
29574;SDS011;16507;51.046;6.406;2023-06-10T01:43:43;22.13;;;9.57;;
29574;SDS011;16507;51.046;6.406;2023-06-10T01:46:13;23.02;;;10.18;;
29574;SDS011;16507;51.046;6.406;2023-06-10T01:48:41;26.30;;;10.35;;
29574;SDS011;16507;51.046;6.406;2023-06-10T01:51:07;21.02;;;10.68;;
29574;SDS011;16507;51.046;6.406;2023-06-10T01:53:32;26.42;;;10.30;;
29574;SDS011;16507;51.046;6.406;2023-06-10T01:55:58;24.98;;;10.60;;
29574;SDS011;16507;51.046;6.406;2023-06-10T01:58:27;33.42;;;10.82;;
29574;SDS011;16507;51.046;6.406;2023-06-10T02:00:53;31.80;;;11.25;;
29574;SDS011;16507;51.046;6.406;2023-06-10T02:03:18;27.85;;;10.52;;
29574;SDS011;16507;51.046;6.406;2023-06-10T02:05:44;45.50;;;11.02;;
29574;SDS011;16507;51.046;6.406;2023-06-10T02:08:10;34.22;;;10.73;;
29574;SDS011;16507;51.046;6.406;2023-06-10T02:10:35;23.90;;;11.30;;
29574;SDS011;16507;51.046;6.406;2023-06-10T02:13:01;22.92;;;10.70;;
29574;SDS011;16507;51.046;6.406;2023-06-10T02:15:27;32.38;;;10.80;;
29574;SDS011;16507;51.046;6.406;2023-06-10T02:17:52;24.55;;;10.98;;
29574;SDS011;16507;51.046;6.406;2023-06-10T02:20:19;23.13;;;9.70;;
29574;SDS011;16507;51.046;6.406;2023-06-10T02:22:46;50.33;;;11.85;;
29574;SDS011;16507;51.046;6.406;2023-06-10T02:25:11;29.35;;;10.32;;
29574;SDS011;16507;51.046;6.406;2023-06-10T02:27:37;26.23;;;11.10;;
29574;SDS011;16507;51.046;6.406;2023-06-10T02:30:03;25.80;;;11.55;;
29574;SDS011;16507;51.046;6.406;2023-06-10T02:32:29;19.85;;;10.73;;
29574;SDS011;16507;51.046;6.406;2023-06-10T02:34:54;29.48;;;11.63;;
29574;SDS011;16507;51.046;6.406;2023-06-10T02:37:20;30.30;;;11.52;;
29574;SDS011;16507;51.046;6.406;2023-06-10T02:39:49;40.13;;;11.95;;
29574;SDS011;16507;51.046;6.406;2023-06-10T02:42:14;43.83;;;12.88;;
29574;SDS011;16507;51.046;6.406;2023-06-10T02:44:40;42.05;;;11.57;;
29574;SDS011;16507;51.046;6.406;2023-06-10T02:47:06;37.17;;;12.23;;
29574;SDS011;16507;51.046;6.406;2023-06-10T02:49:31;27.73;;;12.55;;
29574;SDS011;16507;51.046;6.406;2023-06-10T02:51:57;39.78;;;12.25;;
29574;SDS011;16507;51.046;6.406;2023-06-10T02:54:23;24.10;;;11.35;;
29574;SDS011;16507;51.046;6.406;2023-06-10T02:56:49;27.42;;;12.30;;
29574;SDS011;16507;51.046;6.406;2023-06-10T02:59:16;24.63;;;10.88;;
29574;SDS011;16507;51.046;6.406;2023-06-10T03:01:41;28.17;;;11.05;;
29574;SDS011;16507;51.046;6.406;2023-06-10T03:04:07;34.75;;;11.88;;
29574;SDS011;16507;51.046;6.406;2023-06-10T03:06:33;23.60;;;10.07;;
29574;SDS011;16507;51.046;6.406;2023-06-10T03:09:00;22.60;;;9.82;;
29574;SDS011;16507;51.046;6.406;2023-06-10T03:11:26;36.05;;;10.93;;
29574;SDS011;16507;51.046;6.406;2023-06-10T03:13:51;31.77;;;10.52;;
29574;SDS011;16507;51.046;6.406;2023-06-10T03:16:19;30.60;;;10.70;;
29574;SDS011;16507;51.046;6.406;2023-06-10T03:18:44;34.30;;;10.27;;
29574;SDS011;16507;51.046;6.406;2023-06-10T03:21:10;44.63;;;10.45;;
29574;SDS011;16507;51.046;6.406;2023-06-10T03:23:36;27.35;;;9.63;;
29574;SDS011;16507;51.046;6.406;2023-06-10T03:26:02;35.42;;;10.15;;
29574;SDS011;16507;51.046;6.406;2023-06-10T03:28:30;40.08;;;10.70;;
29574;SDS011;16507;51.046;6.406;2023-06-10T03:30:56;28.73;;;9.95;;
29574;SDS011;16507;51.046;6.406;2023-06-10T03:33:21;36.13;;;12.35;;
29574;SDS011;16507;51.046;6.406;2023-06-10T03:35:47;35.97;;;11.88;;
29574;SDS011;16507;51.046;6.406;2023-06-10T03:38:13;45.08;;;11.15;;
29574;SDS011;16507;51.046;6.406;2023-06-10T03:40:38;41.25;;;10.88;;
29574;SDS011;16507;51.046;6.406;2023-06-10T03:43:04;42.78;;;11.52;;
29574;SDS011;16507;51.046;6.406;2023-06-10T03:45:30;39.90;;;11.13;;
29574;SDS011;16507;51.046;6.406;2023-06-10T03:47:57;30.42;;;11.15;;
29574;SDS011;16507;51.046;6.406;2023-06-10T03:50:23;36.53;;;9.70;;
29574;SDS011;16507;51.046;6.406;2023-06-10T03:52:49;33.03;;;10.27;;
29574;SDS011;16507;51.046;6.406;2023-06-10T03:55:15;38.20;;;11.20;;
29574;SDS011;16507;51.046;6.406;2023-06-10T03:57:42;24.15;;;11.00;;
29574;SDS011;16507;51.046;6.406;2023-06-10T04:00:10;31.20;;;10.35;;
29574;SDS011;16507;51.046;6.406;2023-06-10T04:02:37;32.35;;;10.98;;
29574;SDS011;16507;51.046;6.406;2023-06-10T04:05:11;32.92;;;10.75;;
29574;SDS011;16507;51.046;6.406;2023-06-10T04:07:37;30.23;;;10.05;;
29574;SDS011;16507;51.046;6.406;2023-06-10T04:10:04;27.45;;;10.73;;
29574;SDS011;16507;51.046;6.406;2023-06-10T04:12:31;27.75;;;11.25;;
29574;SDS011;16507;51.046;6.406;2023-06-10T04:14:56;35.50;;;12.38;;
29574;SDS011;16507;51.046;6.406;2023-06-10T04:17:22;48.38;;;12.23;;
29574;SDS011;16507;51.046;6.406;2023-06-10T04:19:48;42.42;;;11.68;;
29574;SDS011;16507;51.046;6.406;2023-06-10T04:22:13;31.02;;;11.18;;
29574;SDS011;16507;51.046;6.406;2023-06-10T04:24:39;33.97;;;12.00;;
29574;SDS011;16507;51.046;6.406;2023-06-10T04:27:04;35.00;;;10.13;;
29574;SDS011;16507;51.046;6.406;2023-06-10T04:29:30;45.50;;;11.88;;
29574;SDS011;16507;51.046;6.406;2023-06-10T04:31:56;43.00;;;10.18;;
29574;SDS011;16507;51.046;6.406;2023-06-10T04:34:22;29.65;;;9.60;;
29574;SDS011;16507;51.046;6.406;2023-06-10T04:36:48;42.25;;;9.85;;
29574;SDS011;16507;51.046;6.406;2023-06-10T04:39:14;36.42;;;10.20;;
29574;SDS011;16507;51.046;6.406;2023-06-10T04:41:41;39.03;;;9.80;;
29574;SDS011;16507;51.046;6.406;2023-06-10T04:44:07;39.30;;;9.93;;
29574;SDS011;16507;51.046;6.406;2023-06-10T04:46:33;37.05;;;9.60;;
29574;SDS011;16507;51.046;6.406;2023-06-10T04:48:58;44.17;;;9.57;;
29574;SDS011;16507;51.046;6.406;2023-06-10T04:51:24;44.10;;;8.68;;
29574;SDS011;16507;51.046;6.406;2023-06-10T04:53:49;33.65;;;10.02;;
29574;SDS011;16507;51.046;6.406;2023-06-10T04:56:15;41.05;;;10.23;;
29574;SDS011;16507;51.046;6.406;2023-06-10T04:58:41;27.13;;;9.25;;
29574;SDS011;16507;51.046;6.406;2023-06-10T05:01:06;34.05;;;10.10;;
29574;SDS011;16507;51.046;6.406;2023-06-10T05:03:35;37.67;;;9.73;;
29574;SDS011;16507;51.046;6.406;2023-06-10T05:06:01;24.50;;;8.82;;
29574;SDS011;16507;51.046;6.406;2023-06-10T05:08:26;22.08;;;8.05;;
29574;SDS011;16507;51.046;6.406;2023-06-10T05:10:52;24.67;;;8.98;;
29574;SDS011;16507;51.046;6.406;2023-06-10T05:13:18;35.38;;;9.27;;
29574;SDS011;16507;51.046;6.406;2023-06-10T05:15:43;34.28;;;9.77;;
29574;SDS011;16507;51.046;6.406;2023-06-10T05:18:10;30.80;;;9.93;;
29574;SDS011;16507;51.046;6.406;2023-06-10T05:20:37;38.95;;;9.07;;
29574;SDS011;16507;51.046;6.406;2023-06-10T05:23:03;23.60;;;9.05;;
29574;SDS011;16507;51.046;6.406;2023-06-10T05:25:32;30.83;;;8.80;;
29574;SDS011;16507;51.046;6.406;2023-06-10T05:27:58;31.38;;;9.32;;
29574;SDS011;16507;51.046;6.406;2023-06-10T05:30:24;44.63;;;9.10;;
29574;SDS011;16507;51.046;6.406;2023-06-10T05:32:51;37.08;;;10.07;;
29574;SDS011;16507;51.046;6.406;2023-06-10T05:35:17;19.42;;;8.82;;
29574;SDS011;16507;51.046;6.406;2023-06-10T05:37:43;29.00;;;9.30;;
29574;SDS011;16507;51.046;6.406;2023-06-10T05:40:09;43.50;;;10.43;;
29574;SDS011;16507;51.046;6.406;2023-06-10T05:42:38;43.42;;;9.90;;
29574;SDS011;16507;51.046;6.406;2023-06-10T05:45:05;39.17;;;9.07;;
29574;SDS011;16507;51.046;6.406;2023-06-10T05:47:31;36.38;;;9.00;;
29574;SDS011;16507;51.046;6.406;2023-06-10T05:49:57;35.67;;;9.13;;
29574;SDS011;16507;51.046;6.406;2023-06-10T05:52:23;25.40;;;8.13;;
29574;SDS011;16507;51.046;6.406;2023-06-10T05:54:48;34.40;;;9.35;;
29574;SDS011;16507;51.046;6.406;2023-06-10T05:57:15;28.05;;;8.80;;
29574;SDS011;16507;51.046;6.406;2023-06-10T05:59:40;34.03;;;9.27;;
29574;SDS011;16507;51.046;6.406;2023-06-10T06:02:06;29.17;;;9.10;;
29574;SDS011;16507;51.046;6.406;2023-06-10T06:04:32;31.45;;;8.65;;
29574;SDS011;16507;51.046;6.406;2023-06-10T06:06:58;23.77;;;8.40;;
29574;SDS011;16507;51.046;6.406;2023-06-10T06:09:24;20.80;;;8.00;;
29574;SDS011;16507;51.046;6.406;2023-06-10T06:11:49;20.38;;;8.25;;
29574;SDS011;16507;51.046;6.406;2023-06-10T06:14:15;20.60;;;8.05;;
29574;SDS011;16507;51.046;6.406;2023-06-10T06:16:40;16.08;;;7.75;;
29574;SDS011;16507;51.046;6.406;2023-06-10T06:19:06;17.85;;;7.78;;
29574;SDS011;16507;51.046;6.406;2023-06-10T06:21:31;16.90;;;7.80;;
29574;SDS011;16507;51.046;6.406;2023-06-10T06:23:58;19.08;;;7.40;;
29574;SDS011;16507;51.046;6.406;2023-06-10T06:26:24;12.88;;;7.35;;
29574;SDS011;16507;51.046;6.406;2023-06-10T06:28:50;17.40;;;8.05;;
29574;SDS011;16507;51.046;6.406;2023-06-10T06:31:17;12.85;;;7.28;;
29574;SDS011;16507;51.046;6.406;2023-06-10T06:33:42;17.15;;;7.93;;
29574;SDS011;16507;51.046;6.406;2023-06-10T06:36:08;12.70;;;7.07;;
29574;SDS011;16507;51.046;6.406;2023-06-10T06:38:34;10.48;;;6.80;;
29574;SDS011;16507;51.046;6.406;2023-06-10T06:40:59;10.32;;;7.85;;
29574;SDS011;16507;51.046;6.406;2023-06-10T06:43:28;15.00;;;6.90;;
29574;SDS011;16507;51.046;6.406;2023-06-10T06:45:55;28.98;;;7.55;;
29574;SDS011;16507;51.046;6.406;2023-06-10T06:48:22;13.57;;;6.80;;
29574;SDS011;16507;51.046;6.406;2023-06-10T06:50:47;14.35;;;7.68;;
29574;SDS011;16507;51.046;6.406;2023-06-10T06:53:13;15.68;;;6.72;;
29574;SDS011;16507;51.046;6.406;2023-06-10T06:55:38;16.77;;;6.85;;
29574;SDS011;16507;51.046;6.406;2023-06-10T06:58:04;10.30;;;7.05;;
29574;SDS011;16507;51.046;6.406;2023-06-10T07:00:30;19.73;;;7.07;;
29574;SDS011;16507;51.046;6.406;2023-06-10T07:02:56;11.70;;;6.43;;
29574;SDS011;16507;51.046;6.406;2023-06-10T07:05:22;8.70;;;6.53;;
29574;SDS011;16507;51.046;6.406;2023-06-10T07:07:48;7.53;;;6.40;;
29574;SDS011;16507;51.046;6.406;2023-06-10T07:10:19;7.72;;;6.07;;
29574;SDS011;16507;51.046;6.406;2023-06-10T07:15:17;16.67;;;5.68;;
29574;SDS011;16507;51.046;6.406;2023-06-10T07:17:43;15.93;;;6.00;;
29574;SDS011;16507;51.046;6.406;2023-06-10T07:20:09;10.95;;;5.68;;
29574;SDS011;16507;51.046;6.406;2023-06-10T07:22:35;21.15;;;6.10;;
29574;SDS011;16507;51.046;6.406;2023-06-10T07:25:01;17.27;;;5.78;;
29574;SDS011;16507;51.046;6.406;2023-06-10T07:27:27;19.67;;;5.50;;
29574;SDS011;16507;51.046;6.406;2023-06-10T07:29:52;12.82;;;5.32;;
29574;SDS011;16507;51.046;6.406;2023-06-10T07:32:18;10.30;;;5.40;;
29574;SDS011;16507;51.046;6.406;2023-06-10T07:34:45;5.78;;;5.28;;
29574;SDS011;16507;51.046;6.406;2023-06-10T07:37:11;5.47;;;4.97;;
29574;SDS011;16507;51.046;6.406;2023-06-10T07:39:36;6.10;;;5.00;;
29574;SDS011;16507;51.046;6.406;2023-06-10T07:42:02;6.95;;;4.80;;
29574;SDS011;16507;51.046;6.406;2023-06-10T07:44:28;7.68;;;4.97;;
29574;SDS011;16507;51.046;6.406;2023-06-10T07:46:53;10.38;;;5.38;;
29574;SDS011;16507;51.046;6.406;2023-06-10T07:49:19;7.78;;;5.22;;
29574;SDS011;16507;51.046;6.406;2023-06-10T07:51:45;5.90;;;4.85;;
29574;SDS011;16507;51.046;6.406;2023-06-10T07:54:10;5.80;;;5.22;;
29574;SDS011;16507;51.046;6.406;2023-06-10T07:56:37;6.18;;;4.78;;
29574;SDS011;16507;51.046;6.406;2023-06-10T07:59:03;6.05;;;5.00;;
29574;SDS011;16507;51.046;6.406;2023-06-10T08:01:28;6.03;;;4.63;;
29574;SDS011;16507;51.046;6.406;2023-06-10T08:03:55;7.15;;;5.25;;
29574;SDS011;16507;51.046;6.406;2023-06-10T08:06:20;6.57;;;5.05;;
29574;SDS011;16507;51.046;6.406;2023-06-10T08:08:46;8.02;;;5.78;;
29574;SDS011;16507;51.046;6.406;2023-06-10T08:11:12;11.75;;;5.95;;
29574;SDS011;16507;51.046;6.406;2023-06-10T08:13:37;6.13;;;5.00;;
29574;SDS011;16507;51.046;6.406;2023-06-10T08:16:03;6.82;;;6.05;;
29574;SDS011;16507;51.046;6.406;2023-06-10T08:18:29;6.45;;;5.85;;
29574;SDS011;16507;51.046;6.406;2023-06-10T08:20:55;5.72;;;5.18;;
29574;SDS011;16507;51.046;6.406;2023-06-10T08:23:20;5.85;;;4.63;;
29574;SDS011;16507;51.046;6.406;2023-06-10T08:25:46;13.77;;;5.47;;
29574;SDS011;16507;51.046;6.406;2023-06-10T08:28:12;9.30;;;4.85;;
29574;SDS011;16507;51.046;6.406;2023-06-10T08:30:38;6.15;;;5.28;;
29574;SDS011;16507;51.046;6.406;2023-06-10T08:33:03;8.50;;;4.90;;
29574;SDS011;16507;51.046;6.406;2023-06-10T08:35:29;8.60;;;5.35;;
29574;SDS011;16507;51.046;6.406;2023-06-10T08:37:54;5.55;;;4.93;;
29574;SDS011;16507;51.046;6.406;2023-06-10T08:40:20;11.77;;;5.57;;
29574;SDS011;16507;51.046;6.406;2023-06-10T08:42:50;9.00;;;5.32;;
29574;SDS011;16507;51.046;6.406;2023-06-10T08:45:25;12.13;;;4.80;;
29574;SDS011;16507;51.046;6.406;2023-06-10T08:47:56;8.63;;;5.10;;
29574;SDS011;16507;51.046;6.406;2023-06-10T08:50:22;5.72;;;5.18;;
29574;SDS011;16507;51.046;6.406;2023-06-10T08:52:48;8.10;;;5.22;;
29574;SDS011;16507;51.046;6.406;2023-06-10T08:55:23;7.05;;;5.45;;
29574;SDS011;16507;51.046;6.406;2023-06-10T08:57:55;7.30;;;5.10;;
29574;SDS011;16507;51.046;6.406;2023-06-10T09:00:24;5.70;;;5.30;;
29574;SDS011;16507;51.046;6.406;2023-06-10T09:02:51;7.40;;;5.35;;
29574;SDS011;16507;51.046;6.406;2023-06-10T09:05:17;5.63;;;5.22;;
29574;SDS011;16507;51.046;6.406;2023-06-10T09:07:46;7.32;;;5.60;;
29574;SDS011;16507;51.046;6.406;2023-06-10T09:10:13;5.55;;;5.07;;
29574;SDS011;16507;51.046;6.406;2023-06-10T09:12:39;7.50;;;5.40;;
29574;SDS011;16507;51.046;6.406;2023-06-10T09:15:05;6.75;;;5.88;;
29574;SDS011;16507;51.046;6.406;2023-06-10T09:17:32;6.55;;;4.88;;
29574;SDS011;16507;51.046;6.406;2023-06-10T09:19:59;8.27;;;5.15;;
29574;SDS011;16507;51.046;6.406;2023-06-10T09:22:24;7.85;;;5.15;;
29574;SDS011;16507;51.046;6.406;2023-06-10T09:24:51;10.73;;;5.40;;
29574;SDS011;16507;51.046;6.406;2023-06-10T09:27:29;5.53;;;5.13;;
29574;SDS011;16507;51.046;6.406;2023-06-10T09:29:55;7.28;;;5.25;;
29574;SDS011;16507;51.046;6.406;2023-06-10T09:32:22;6.45;;;5.40;;
29574;SDS011;16507;51.046;6.406;2023-06-10T09:34:49;9.07;;;5.50;;
29574;SDS011;16507;51.046;6.406;2023-06-10T09:37:24;5.78;;;4.80;;
29574;SDS011;16507;51.046;6.406;2023-06-10T09:42:32;5.53;;;5.10;;
29574;SDS011;16507;51.046;6.406;2023-06-10T09:45:00;7.30;;;5.32;;
29574;SDS011;16507;51.046;6.406;2023-06-10T09:47:26;13.13;;;5.22;;
29574;SDS011;16507;51.046;6.406;2023-06-10T09:49:52;12.60;;;5.65;;
29574;SDS011;16507;51.046;6.406;2023-06-10T09:52:25;11.93;;;4.82;;
29574;SDS011;16507;51.046;6.406;2023-06-10T09:54:51;7.63;;;5.00;;
29574;SDS011;16507;51.046;6.406;2023-06-10T09:57:18;6.18;;;4.80;;
29574;SDS011;16507;51.046;6.406;2023-06-10T09:59:45;6.97;;;5.28;;
29574;SDS011;16507;51.046;6.406;2023-06-10T10:02:14;7.43;;;5.63;;
29574;SDS011;16507;51.046;6.406;2023-06-10T10:04:41;8.05;;;5.38;;
29574;SDS011;16507;51.046;6.406;2023-06-10T10:07:10;5.75;;;5.28;;
29574;SDS011;16507;51.046;6.406;2023-06-10T10:09:37;7.47;;;5.07;;
29574;SDS011;16507;51.046;6.406;2023-06-10T10:12:10;7.45;;;5.55;;
29574;SDS011;16507;51.046;6.406;2023-06-10T10:14:37;8.18;;;5.20;;
29574;SDS011;16507;51.046;6.406;2023-06-10T10:17:04;11.50;;;5.10;;
29574;SDS011;16507;51.046;6.406;2023-06-10T10:19:35;5.20;;;4.75;;
29574;SDS011;16507;51.046;6.406;2023-06-10T10:22:10;5.30;;;4.88;;
29574;SDS011;16507;51.046;6.406;2023-06-10T10:24:50;7.30;;;5.30;;
29574;SDS011;16507;51.046;6.406;2023-06-10T10:27:20;5.68;;;5.15;;
29574;SDS011;16507;51.046;6.406;2023-06-10T10:29:51;7.35;;;5.47;;
29574;SDS011;16507;51.046;6.406;2023-06-10T10:32:18;7.50;;;5.57;;
29574;SDS011;16507;51.046;6.406;2023-06-10T10:35:08;5.88;;;5.40;;
29574;SDS011;16507;51.046;6.406;2023-06-10T10:37:37;5.80;;;5.30;;
29574;SDS011;16507;51.046;6.406;2023-06-10T10:40:04;6.25;;;5.18;;
29574;SDS011;16507;51.046;6.406;2023-06-10T10:42:32;8.88;;;5.43;;
29574;SDS011;16507;51.046;6.406;2023-06-10T10:45:01;5.47;;;5.15;;
29574;SDS011;16507;51.046;6.406;2023-06-10T10:47:27;5.20;;;4.88;;
29574;SDS011;16507;51.046;6.406;2023-06-10T10:49:56;5.90;;;4.95;;
29574;SDS011;16507;51.046;6.406;2023-06-10T10:52:25;8.93;;;5.70;;
29574;SDS011;16507;51.046;6.406;2023-06-10T10:54:53;8.25;;;5.65;;
29574;SDS011;16507;51.046;6.406;2023-06-10T10:57:22;5.57;;;5.20;;
29574;SDS011;16507;51.046;6.406;2023-06-10T11:04:46;9.35;;;5.40;;
29574;SDS011;16507;51.046;6.406;2023-06-10T11:07:12;6.05;;;5.47;;
29574;SDS011;16507;51.046;6.406;2023-06-10T11:09:56;6.30;;;5.07;;
29574;SDS011;16507;51.046;6.406;2023-06-10T11:15:10;9.35;;;5.15;;
29574;SDS011;16507;51.046;6.406;2023-06-10T11:17:37;5.47;;;4.97;;
29574;SDS011;16507;51.046;6.406;2023-06-10T11:20:02;9.40;;;4.80;;
29574;SDS011;16507;51.046;6.406;2023-06-10T11:22:28;5.80;;;5.30;;
29574;SDS011;16507;51.046;6.406;2023-06-10T11:24:54;6.63;;;6.00;;
29574;SDS011;16507;51.046;6.406;2023-06-10T11:27:22;9.60;;;5.05;;
29574;SDS011;16507;51.046;6.406;2023-06-10T11:32:28;7.63;;;5.13;;
29574;SDS011;16507;51.046;6.406;2023-06-10T11:34:58;6.32;;;5.03;;
29574;SDS011;16507;51.046;6.406;2023-06-10T11:37:24;6.20;;;5.38;;
29574;SDS011;16507;51.046;6.406;2023-06-10T11:39:56;8.73;;;5.30;;
29574;SDS011;16507;51.046;6.406;2023-06-10T11:42:23;5.22;;;4.90;;
29574;SDS011;16507;51.046;6.406;2023-06-10T11:44:50;10.40;;;5.90;;
29574;SDS011;16507;51.046;6.406;2023-06-10T11:47:16;9.52;;;4.72;;
29574;SDS011;16507;51.046;6.406;2023-06-10T11:49:43;11.20;;;5.75;;
29574;SDS011;16507;51.046;6.406;2023-06-10T11:52:09;5.97;;;5.40;;
29574;SDS011;16507;51.046;6.406;2023-06-10T11:54:35;7.00;;;4.95;;
29574;SDS011;16507;51.046;6.406;2023-06-10T11:57:01;5.30;;;4.90;;
29574;SDS011;16507;51.046;6.406;2023-06-10T11:59:28;8.00;;;5.10;;
29574;SDS011;16507;51.046;6.406;2023-06-10T12:01:54;5.70;;;5.20;;
29574;SDS011;16507;51.046;6.406;2023-06-10T12:04:20;5.65;;;5.35;;
29574;SDS011;16507;51.046;6.406;2023-06-10T12:06:51;8.13;;;5.65;;
29574;SDS011;16507;51.046;6.406;2023-06-10T12:09:28;7.15;;;5.57;;
29574;SDS011;16507;51.046;6.406;2023-06-10T12:11:59;6.00;;;5.53;;
29574;SDS011;16507;51.046;6.406;2023-06-10T12:19:58;7.03;;;5.40;;
29574;SDS011;16507;51.046;6.406;2023-06-10T12:22:35;5.88;;;5.35;;
29574;SDS011;16507;51.046;6.406;2023-06-10T12:25:05;5.88;;;5.38;;
29574;SDS011;16507;51.046;6.406;2023-06-10T12:27:32;7.07;;;5.63;;
29574;SDS011;16507;51.046;6.406;2023-06-10T12:30:00;6.38;;;5.32;;
29574;SDS011;16507;51.046;6.406;2023-06-10T12:35:08;7.18;;;5.50;;
29574;SDS011;16507;51.046;6.406;2023-06-10T12:37:35;14.77;;;6.03;;
29574;SDS011;16507;51.046;6.406;2023-06-10T12:40:02;9.63;;;5.07;;
29574;SDS011;16507;51.046;6.406;2023-06-10T12:42:29;5.72;;;5.32;;
29574;SDS011;16507;51.046;6.406;2023-06-10T12:44:56;5.55;;;5.05;;
29574;SDS011;16507;51.046;6.406;2023-06-10T12:47:34;9.18;;;4.80;;
29574;SDS011;16507;51.046;6.406;2023-06-10T12:50:03;6.47;;;4.80;;
29574;SDS011;16507;51.046;6.406;2023-06-10T12:52:29;5.28;;;4.80;;
29574;SDS011;16507;51.046;6.406;2023-06-10T12:54:57;5.85;;;5.25;;
29574;SDS011;16507;51.046;6.406;2023-06-10T12:57:23;6.97;;;4.68;;
29574;SDS011;16507;51.046;6.406;2023-06-10T12:59:50;5.20;;;4.88;;
29574;SDS011;16507;51.046;6.406;2023-06-10T13:02:20;7.38;;;4.97;;
29574;SDS011;16507;51.046;6.406;2023-06-10T13:04:48;7.18;;;4.82;;
29574;SDS011;16507;51.046;6.406;2023-06-10T13:07:15;8.18;;;5.68;;
29574;SDS011;16507;51.046;6.406;2023-06-10T13:09:40;5.47;;;4.97;;
29574;SDS011;16507;51.046;6.406;2023-06-10T13:12:06;5.85;;;5.43;;
29574;SDS011;16507;51.046;6.406;2023-06-10T13:14:33;6.75;;;4.93;;
29574;SDS011;16507;51.046;6.406;2023-06-10T13:16:58;7.22;;;4.60;;
29574;SDS011;16507;51.046;6.406;2023-06-10T13:19:24;6.97;;;5.10;;
29574;SDS011;16507;51.046;6.406;2023-06-10T13:21:50;4.95;;;4.55;;
29574;SDS011;16507;51.046;6.406;2023-06-10T13:24:16;5.47;;;4.35;;
29574;SDS011;16507;51.046;6.406;2023-06-10T13:26:42;5.03;;;4.53;;
29574;SDS011;16507;51.046;6.406;2023-06-10T13:29:08;6.93;;;4.90;;
29574;SDS011;16507;51.046;6.406;2023-06-10T13:31:38;4.70;;;4.30;;
29574;SDS011;16507;51.046;6.406;2023-06-10T13:34:05;5.18;;;4.75;;
29574;SDS011;16507;51.046;6.406;2023-06-10T13:36:31;5.28;;;4.78;;
29574;SDS011;16507;51.046;6.406;2023-06-10T13:38:57;10.70;;;4.80;;
29574;SDS011;16507;51.046;6.406;2023-06-10T13:41:22;5.03;;;4.72;;
29574;SDS011;16507;51.046;6.406;2023-06-10T13:43:49;5.18;;;4.72;;
29574;SDS011;16507;51.046;6.406;2023-06-10T13:46:15;13.30;;;5.10;;
29574;SDS011;16507;51.046;6.406;2023-06-10T13:48:40;6.75;;;4.25;;
29574;SDS011;16507;51.046;6.406;2023-06-10T13:51:06;10.70;;;4.72;;
29574;SDS011;16507;51.046;6.406;2023-06-10T13:53:34;8.25;;;4.68;;
29574;SDS011;16507;51.046;6.406;2023-06-10T13:55:59;9.23;;;4.82;;
29574;SDS011;16507;51.046;6.406;2023-06-10T13:58:25;6.25;;;4.03;;
29574;SDS011;16507;51.046;6.406;2023-06-10T14:00:50;13.05;;;5.35;;
29574;SDS011;16507;51.046;6.406;2023-06-10T14:03:16;10.63;;;4.75;;
29574;SDS011;16507;51.046;6.406;2023-06-10T14:05:42;8.07;;;4.47;;
29574;SDS011;16507;51.046;6.406;2023-06-10T14:08:07;9.45;;;4.90;;
29574;SDS011;16507;51.046;6.406;2023-06-10T14:10:33;7.10;;;4.32;;
29574;SDS011;16507;51.046;6.406;2023-06-10T14:12:58;8.10;;;4.70;;
29574;SDS011;16507;51.046;6.406;2023-06-10T14:15:25;5.07;;;4.70;;
29574;SDS011;16507;51.046;6.406;2023-06-10T14:17:51;5.30;;;4.80;;
29574;SDS011;16507;51.046;6.406;2023-06-10T14:20:16;8.05;;;4.43;;
29574;SDS011;16507;51.046;6.406;2023-06-10T14:22:42;6.45;;;5.00;;
29574;SDS011;16507;51.046;6.406;2023-06-10T14:25:08;7.38;;;4.45;;
29574;SDS011;16507;51.046;6.406;2023-06-10T14:27:33;5.57;;;4.55;;
29574;SDS011;16507;51.046;6.406;2023-06-10T14:30:02;7.57;;;4.85;;
29574;SDS011;16507;51.046;6.406;2023-06-10T14:32:28;8.82;;;3.80;;
29574;SDS011;16507;51.046;6.406;2023-06-10T14:34:54;6.53;;;4.28;;
29574;SDS011;16507;51.046;6.406;2023-06-10T14:37:20;9.43;;;4.38;;
29574;SDS011;16507;51.046;6.406;2023-06-10T14:39:48;5.35;;;4.85;;
29574;SDS011;16507;51.046;6.406;2023-06-10T14:42:15;7.60;;;4.28;;
29574;SDS011;16507;51.046;6.406;2023-06-10T14:44:41;11.45;;;4.60;;
29574;SDS011;16507;51.046;6.406;2023-06-10T14:47:06;4.60;;;4.15;;
29574;SDS011;16507;51.046;6.406;2023-06-10T14:49:32;4.43;;;4.15;;
29574;SDS011;16507;51.046;6.406;2023-06-10T14:51:57;4.50;;;4.18;;
29574;SDS011;16507;51.046;6.406;2023-06-10T14:54:23;10.45;;;4.18;;
29574;SDS011;16507;51.046;6.406;2023-06-10T14:56:49;5.90;;;4.43;;
29574;SDS011;16507;51.046;6.406;2023-06-10T14:59:15;10.50;;;4.70;;
29574;SDS011;16507;51.046;6.406;2023-06-10T15:01:40;6.03;;;3.97;;
29574;SDS011;16507;51.046;6.406;2023-06-10T15:04:06;4.38;;;3.97;;